sensor_id;sensor_type;location;lat;lon;timestamp;P1;durP1;ratioP1;P2;durP2;ratioP2
9413;SDS011;4746;35.664;139.738;2023-04-06T00:01:43;3.57;;;3.27;;
9413;SDS011;4746;35.664;139.738;2023-04-06T00:04:12;9.00;;;3.90;;
9413;SDS011;4746;35.664;139.738;2023-04-06T00:06:40;4.13;;;3.73;;
9413;SDS011;4746;35.664;139.738;2023-04-06T00:09:08;4.80;;;3.20;;
9413;SDS011;4746;35.664;139.738;2023-04-06T00:11:35;4.30;;;3.40;;
9413;SDS011;4746;35.664;139.738;2023-04-06T00:14:03;6.20;;;3.80;;
9413;SDS011;4746;35.664;139.738;2023-04-06T00:16:30;3.37;;;3.07;;
9413;SDS011;4746;35.664;139.738;2023-04-06T00:18:58;4.67;;;3.67;;
9413;SDS011;4746;35.664;139.738;2023-04-06T00:21:25;3.83;;;3.37;;
9413;SDS011;4746;35.664;139.738;2023-04-06T00:23:53;8.03;;;3.80;;
9413;SDS011;4746;35.664;139.738;2023-04-06T00:26:20;7.20;;;3.70;;
9413;SDS011;4746;35.664;139.738;2023-04-06T00:28:48;5.30;;;3.77;;
9413;SDS011;4746;35.664;139.738;2023-04-06T00:31:17;6.13;;;3.20;;
9413;SDS011;4746;35.664;139.738;2023-04-06T00:33:46;7.00;;;3.40;;
9413;SDS011;4746;35.664;139.738;2023-04-06T00:36:14;4.97;;;3.73;;
9413;SDS011;4746;35.664;139.738;2023-04-06T00:38:42;5.50;;;3.07;;
9413;SDS011;4746;35.664;139.738;2023-04-06T00:41:09;5.40;;;3.30;;
9413;SDS011;4746;35.664;139.738;2023-04-06T00:43:38;5.20;;;3.17;;
9413;SDS011;4746;35.664;139.738;2023-04-06T00:46:06;7.57;;;3.70;;
9413;SDS011;4746;35.664;139.738;2023-04-06T00:48:34;5.67;;;3.67;;
9413;SDS011;4746;35.664;139.738;2023-04-06T00:51:01;4.13;;;3.00;;
9413;SDS011;4746;35.664;139.738;2023-04-06T00:53:31;5.70;;;3.03;;
9413;SDS011;4746;35.664;139.738;2023-04-06T00:55:59;4.40;;;3.00;;
9413;SDS011;4746;35.664;139.738;2023-04-06T00:58:27;4.53;;;2.80;;
9413;SDS011;4746;35.664;139.738;2023-04-06T01:00:55;4.63;;;3.07;;
9413;SDS011;4746;35.664;139.738;2023-04-06T01:03:23;2.90;;;2.60;;
9413;SDS011;4746;35.664;139.738;2023-04-06T01:05:51;2.90;;;2.50;;
9413;SDS011;4746;35.664;139.738;2023-04-06T01:08:23;4.18;;;2.88;;
9413;SDS011;4746;35.664;139.738;2023-04-06T01:10:51;5.30;;;3.27;;
9413;SDS011;4746;35.664;139.738;2023-04-06T01:13:19;3.53;;;3.20;;
9413;SDS011;4746;35.664;139.738;2023-04-06T01:15:46;4.67;;;3.30;;
9413;SDS011;4746;35.664;139.738;2023-04-06T01:18:15;3.97;;;3.40;;
9413;SDS011;4746;35.664;139.738;2023-04-06T01:20:42;5.33;;;3.73;;
9413;SDS011;4746;35.664;139.738;2023-04-06T01:23:10;5.07;;;3.40;;
9413;SDS011;4746;35.664;139.738;2023-04-06T01:25:37;4.57;;;2.67;;
9413;SDS011;4746;35.664;139.738;2023-04-06T01:28:05;8.30;;;3.20;;
9413;SDS011;4746;35.664;139.738;2023-04-06T01:30:32;5.20;;;2.80;;
9413;SDS011;4746;35.664;139.738;2023-04-06T01:33:03;6.00;;;3.10;;
9413;SDS011;4746;35.664;139.738;2023-04-06T01:35:30;4.20;;;2.90;;
9413;SDS011;4746;35.664;139.738;2023-04-06T01:37:58;3.97;;;2.78;;
9413;SDS011;4746;35.664;139.738;2023-04-06T01:40:26;6.23;;;3.23;;
9413;SDS011;4746;35.664;139.738;2023-04-06T01:42:53;5.75;;;2.33;;
9413;SDS011;4746;35.664;139.738;2023-04-06T01:45:21;7.28;;;3.97;;
9413;SDS011;4746;35.664;139.738;2023-04-06T01:47:48;5.47;;;3.05;;
9413;SDS011;4746;35.664;139.738;2023-04-06T01:50:16;6.38;;;3.38;;
9413;SDS011;4746;35.664;139.738;2023-04-06T01:52:43;6.50;;;3.22;;
9413;SDS011;4746;35.664;139.738;2023-04-06T01:55:11;8.55;;;3.72;;
9413;SDS011;4746;35.664;139.738;2023-04-06T01:57:38;7.47;;;3.33;;
9413;SDS011;4746;35.664;139.738;2023-04-06T02:00:06;7.10;;;3.40;;
9413;SDS011;4746;35.664;139.738;2023-04-06T02:02:35;5.32;;;3.38;;
9413;SDS011;4746;35.664;139.738;2023-04-06T02:05:02;4.72;;;3.30;;
9413;SDS011;4746;35.664;139.738;2023-04-06T02:07:30;8.05;;;3.72;;
9413;SDS011;4746;35.664;139.738;2023-04-06T02:09:58;5.10;;;2.55;;
9413;SDS011;4746;35.664;139.738;2023-04-06T02:12:25;3.70;;;2.75;;
9413;SDS011;4746;35.664;139.738;2023-04-06T02:14:55;7.32;;;3.22;;
9413;SDS011;4746;35.664;139.738;2023-04-06T02:17:23;4.30;;;2.40;;
9413;SDS011;4746;35.664;139.738;2023-04-06T02:19:50;6.40;;;2.72;;
9413;SDS011;4746;35.664;139.738;2023-04-06T02:22:18;3.95;;;2.55;;
9413;SDS011;4746;35.664;139.738;2023-04-06T02:24:45;6.15;;;3.03;;
9413;SDS011;4746;35.664;139.738;2023-04-06T02:27:13;5.40;;;2.60;;
9413;SDS011;4746;35.664;139.738;2023-04-06T02:29:41;4.78;;;2.30;;
9413;SDS011;4746;35.664;139.738;2023-04-06T02:32:08;3.78;;;2.67;;
9413;SDS011;4746;35.664;139.738;2023-04-06T02:34:36;3.53;;;2.20;;
9413;SDS011;4746;35.664;139.738;2023-04-06T02:37:03;3.55;;;2.05;;
9413;SDS011;4746;35.664;139.738;2023-04-06T02:39:31;2.85;;;2.15;;
9413;SDS011;4746;35.664;139.738;2023-04-06T02:41:59;5.72;;;2.83;;
9413;SDS011;4746;35.664;139.738;2023-04-06T02:44:27;5.05;;;2.05;;
9413;SDS011;4746;35.664;139.738;2023-04-06T02:46:55;5.18;;;2.72;;
9413;SDS011;4746;35.664;139.738;2023-04-06T02:49:22;7.28;;;2.80;;
9413;SDS011;4746;35.664;139.738;2023-04-06T02:51:49;3.08;;;2.05;;
9413;SDS011;4746;35.664;139.738;2023-04-06T02:54:17;4.90;;;2.67;;
9413;SDS011;4746;35.664;139.738;2023-04-06T02:56:44;7.15;;;3.03;;
9413;SDS011;4746;35.664;139.738;2023-04-06T02:59:12;4.35;;;3.00;;
9413;SDS011;4746;35.664;139.738;2023-04-06T03:01:40;7.38;;;3.35;;
9413;SDS011;4746;35.664;139.738;2023-04-06T03:04:07;4.32;;;3.00;;
9413;SDS011;4746;35.664;139.738;2023-04-06T03:06:35;5.60;;;3.22;;
9413;SDS011;4746;35.664;139.738;2023-04-06T03:09:02;5.45;;;3.38;;
9413;SDS011;4746;35.664;139.738;2023-04-06T03:11:31;6.88;;;3.40;;
9413;SDS011;4746;35.664;139.738;2023-04-06T03:13:58;5.13;;;3.40;;
9413;SDS011;4746;35.664;139.738;2023-04-06T03:16:26;5.13;;;3.30;;
9413;SDS011;4746;35.664;139.738;2023-04-06T03:18:53;7.88;;;4.00;;
9413;SDS011;4746;35.664;139.738;2023-04-06T03:21:21;4.88;;;3.53;;
9413;SDS011;4746;35.664;139.738;2023-04-06T03:23:48;5.00;;;3.47;;
9413;SDS011;4746;35.664;139.738;2023-04-06T03:26:16;5.20;;;2.92;;
9413;SDS011;4746;35.664;139.738;2023-04-06T03:28:44;5.28;;;2.85;;
9413;SDS011;4746;35.664;139.738;2023-04-06T03:31:12;8.13;;;4.05;;
9413;SDS011;4746;35.664;139.738;2023-04-06T03:33:39;5.88;;;3.72;;
9413;SDS011;4746;35.664;139.738;2023-04-06T03:36:07;5.53;;;3.15;;
9413;SDS011;4746;35.664;139.738;2023-04-06T03:38:35;3.47;;;2.83;;
9413;SDS011;4746;35.664;139.738;2023-04-06T03:41:02;4.95;;;2.90;;
9413;SDS011;4746;35.664;139.738;2023-04-06T03:43:30;6.78;;;3.42;;
9413;SDS011;4746;35.664;139.738;2023-04-06T03:45:58;5.57;;;3.20;;
9413;SDS011;4746;35.664;139.738;2023-04-06T03:48:25;5.80;;;2.90;;
9413;SDS011;4746;35.664;139.738;2023-04-06T03:50:53;5.95;;;3.50;;
9413;SDS011;4746;35.664;139.738;2023-04-06T03:53:20;4.05;;;3.15;;
9413;SDS011;4746;35.664;139.738;2023-04-06T03:55:48;8.15;;;3.05;;
9413;SDS011;4746;35.664;139.738;2023-04-06T03:58:15;7.65;;;2.97;;
9413;SDS011;4746;35.664;139.738;2023-04-06T04:00:43;7.00;;;3.22;;
9413;SDS011;4746;35.664;139.738;2023-04-06T04:03:10;6.20;;;3.45;;
9413;SDS011;4746;35.664;139.738;2023-04-06T04:05:38;5.38;;;3.30;;
9413;SDS011;4746;35.664;139.738;2023-04-06T04:08:05;6.43;;;3.30;;
9413;SDS011;4746;35.664;139.738;2023-04-06T04:10:33;5.88;;;3.53;;
9413;SDS011;4746;35.664;139.738;2023-04-06T04:13:02;7.45;;;3.33;;
9413;SDS011;4746;35.664;139.738;2023-04-06T04:15:30;3.92;;;2.67;;
9413;SDS011;4746;35.664;139.738;2023-04-06T04:17:57;4.55;;;3.05;;
9413;SDS011;4746;35.664;139.738;2023-04-06T04:20:26;8.40;;;4.28;;
9413;SDS011;4746;35.664;139.738;2023-04-06T04:22:53;5.65;;;3.47;;
9413;SDS011;4746;35.664;139.738;2023-04-06T04:25:22;8.88;;;3.60;;
9413;SDS011;4746;35.664;139.738;2023-04-06T04:27:50;4.82;;;3.30;;
9413;SDS011;4746;35.664;139.738;2023-04-06T04:30:17;7.78;;;3.70;;
9413;SDS011;4746;35.664;139.738;2023-04-06T04:32:45;5.10;;;3.00;;
9413;SDS011;4746;35.664;139.738;2023-04-06T04:35:12;4.70;;;2.85;;
9413;SDS011;4746;35.664;139.738;2023-04-06T04:37:40;5.78;;;3.03;;
9413;SDS011;4746;35.664;139.738;2023-04-06T04:40:08;7.75;;;3.83;;
9413;SDS011;4746;35.664;139.738;2023-04-06T04:42:36;4.18;;;3.08;;
9413;SDS011;4746;35.664;139.738;2023-04-06T04:45:04;5.03;;;3.35;;
9413;SDS011;4746;35.664;139.738;2023-04-06T04:47:32;5.15;;;3.30;;
9413;SDS011;4746;35.664;139.738;2023-04-06T04:49:59;7.40;;;3.08;;
9413;SDS011;4746;35.664;139.738;2023-04-06T04:52:27;6.43;;;2.92;;
9413;SDS011;4746;35.664;139.738;2023-04-06T04:54:54;4.72;;;3.10;;
9413;SDS011;4746;35.664;139.738;2023-04-06T04:57:22;5.43;;;3.05;;
9413;SDS011;4746;35.664;139.738;2023-04-06T04:59:49;7.72;;;3.72;;
9413;SDS011;4746;35.664;139.738;2023-04-06T05:02:17;7.80;;;2.92;;
9413;SDS011;4746;35.664;139.738;2023-04-06T05:04:44;4.03;;;2.60;;
9413;SDS011;4746;35.664;139.738;2023-04-06T05:07:12;7.70;;;3.20;;
9413;SDS011;4746;35.664;139.738;2023-04-06T05:09:40;5.28;;;3.00;;
9413;SDS011;4746;35.664;139.738;2023-04-06T05:12:09;5.82;;;3.20;;
9413;SDS011;4746;35.664;139.738;2023-04-06T05:14:36;8.32;;;3.33;;
9413;SDS011;4746;35.664;139.738;2023-04-06T05:17:04;8.13;;;3.20;;
9413;SDS011;4746;35.664;139.738;2023-04-06T05:19:32;8.77;;;3.22;;
9413;SDS011;4746;35.664;139.738;2023-04-06T05:21:59;7.15;;;3.30;;
9413;SDS011;4746;35.664;139.738;2023-04-06T05:24:27;4.88;;;2.55;;
9413;SDS011;4746;35.664;139.738;2023-04-06T05:26:55;5.45;;;2.83;;
9413;SDS011;4746;35.664;139.738;2023-04-06T05:29:22;9.30;;;3.60;;
9413;SDS011;4746;35.664;139.738;2023-04-06T05:31:50;6.32;;;3.60;;
9413;SDS011;4746;35.664;139.738;2023-04-06T05:34:18;6.25;;;3.35;;
9413;SDS011;4746;35.664;139.738;2023-04-06T05:36:45;12.10;;;3.65;;
9413;SDS011;4746;35.664;139.738;2023-04-06T05:39:13;8.48;;;3.42;;
9413;SDS011;4746;35.664;139.738;2023-04-06T05:41:41;6.22;;;3.47;;
9413;SDS011;4746;35.664;139.738;2023-04-06T05:44:08;5.65;;;3.05;;
9413;SDS011;4746;35.664;139.738;2023-04-06T05:46:36;5.40;;;2.92;;
9413;SDS011;4746;35.664;139.738;2023-04-06T05:49:03;10.55;;;3.90;;
9413;SDS011;4746;35.664;139.738;2023-04-06T05:51:31;7.05;;;3.30;;
9413;SDS011;4746;35.664;139.738;2023-04-06T05:53:58;8.38;;;3.60;;
9413;SDS011;4746;35.664;139.738;2023-04-06T05:56:26;7.30;;;3.28;;
9413;SDS011;4746;35.664;139.738;2023-04-06T05:58:55;7.68;;;3.40;;
9413;SDS011;4746;35.664;139.738;2023-04-06T06:01:23;8.10;;;3.17;;
9413;SDS011;4746;35.664;139.738;2023-04-06T06:03:50;9.88;;;3.83;;
9413;SDS011;4746;35.664;139.738;2023-04-06T06:06:18;7.32;;;2.90;;
9413;SDS011;4746;35.664;139.738;2023-04-06T06:08:45;5.47;;;3.17;;
9413;SDS011;4746;35.664;139.738;2023-04-06T06:11:13;5.53;;;3.15;;
9413;SDS011;4746;35.664;139.738;2023-04-06T06:13:41;7.70;;;3.22;;
9413;SDS011;4746;35.664;139.738;2023-04-06T06:16:08;8.32;;;3.10;;
9413;SDS011;4746;35.664;139.738;2023-04-06T06:18:36;7.95;;;2.90;;
9413;SDS011;4746;35.664;139.738;2023-04-06T06:21:03;5.43;;;2.83;;
9413;SDS011;4746;35.664;139.738;2023-04-06T06:23:31;5.07;;;3.03;;
9413;SDS011;4746;35.664;139.738;2023-04-06T06:25:58;9.30;;;3.53;;
9413;SDS011;4746;35.664;139.738;2023-04-06T06:28:28;9.40;;;3.50;;
9413;SDS011;4746;35.664;139.738;2023-04-06T06:30:56;7.70;;;2.97;;
9413;SDS011;4746;35.664;139.738;2023-04-06T06:33:24;7.00;;;3.22;;
9413;SDS011;4746;35.664;139.738;2023-04-06T06:35:51;7.95;;;3.58;;
9413;SDS011;4746;35.664;139.738;2023-04-06T06:38:19;5.47;;;3.15;;
9413;SDS011;4746;35.664;139.738;2023-04-06T06:40:46;9.45;;;4.10;;
9413;SDS011;4746;35.664;139.738;2023-04-06T06:43:14;10.15;;;3.70;;
9413;SDS011;4746;35.664;139.738;2023-04-06T06:45:41;6.43;;;3.17;;
9413;SDS011;4746;35.664;139.738;2023-04-06T06:48:10;8.10;;;3.63;;
9413;SDS011;4746;35.664;139.738;2023-04-06T06:50:37;8.52;;;3.50;;
9413;SDS011;4746;35.664;139.738;2023-04-06T06:53:05;6.72;;;3.40;;
9413;SDS011;4746;35.664;139.738;2023-04-06T06:55:32;6.65;;;3.20;;
9413;SDS011;4746;35.664;139.738;2023-04-06T06:58:00;6.70;;;3.67;;
9413;SDS011;4746;35.664;139.738;2023-04-06T07:00:28;6.70;;;3.70;;
9413;SDS011;4746;35.664;139.738;2023-04-06T07:02:55;6.20;;;3.00;;
9413;SDS011;4746;35.664;139.738;2023-04-06T07:05:23;5.65;;;3.33;;
9413;SDS011;4746;35.664;139.738;2023-04-06T07:07:52;6.55;;;3.72;;
9413;SDS011;4746;35.664;139.738;2023-04-06T07:10:23;10.38;;;3.70;;
9413;SDS011;4746;35.664;139.738;2023-04-06T07:12:52;8.20;;;3.75;;
9413;SDS011;4746;35.664;139.738;2023-04-06T07:15:19;9.23;;;3.63;;
9413;SDS011;4746;35.664;139.738;2023-04-06T07:17:47;7.80;;;3.65;;
9413;SDS011;4746;35.664;139.738;2023-04-06T07:20:15;8.23;;;4.13;;
9413;SDS011;4746;35.664;139.738;2023-04-06T07:22:43;7.35;;;4.20;;
9413;SDS011;4746;35.664;139.738;2023-04-06T07:25:10;8.18;;;3.40;;
9413;SDS011;4746;35.664;139.738;2023-04-06T07:27:38;9.50;;;3.97;;
9413;SDS011;4746;35.664;139.738;2023-04-06T07:30:08;5.78;;;3.88;;
9413;SDS011;4746;35.664;139.738;2023-04-06T07:32:36;7.85;;;4.03;;
9413;SDS011;4746;35.664;139.738;2023-04-06T07:35:04;6.97;;;3.22;;
9413;SDS011;4746;35.664;139.738;2023-04-06T07:37:31;4.78;;;2.97;;
9413;SDS011;4746;35.664;139.738;2023-04-06T07:39:59;7.53;;;3.60;;
9413;SDS011;4746;35.664;139.738;2023-04-06T07:42:27;6.00;;;3.05;;
9413;SDS011;4746;35.664;139.738;2023-04-06T07:44:54;6.90;;;3.50;;
9413;SDS011;4746;35.664;139.738;2023-04-06T07:47:22;8.90;;;3.78;;
9413;SDS011;4746;35.664;139.738;2023-04-06T07:49:50;8.80;;;3.35;;
9413;SDS011;4746;35.664;139.738;2023-04-06T07:52:21;7.25;;;3.30;;
9413;SDS011;4746;35.664;139.738;2023-04-06T07:54:48;6.82;;;2.85;;
9413;SDS011;4746;35.664;139.738;2023-04-06T07:57:16;9.43;;;3.13;;
9413;SDS011;4746;35.664;139.738;2023-04-06T07:59:44;5.10;;;2.72;;
9413;SDS011;4746;35.664;139.738;2023-04-06T08:02:11;7.43;;;2.90;;
9413;SDS011;4746;35.664;139.738;2023-04-06T08:04:39;6.18;;;2.40;;
9413;SDS011;4746;35.664;139.738;2023-04-06T08:07:06;6.55;;;3.08;;
9413;SDS011;4746;35.664;139.738;2023-04-06T08:09:37;5.88;;;3.15;;
9413;SDS011;4746;35.664;139.738;2023-04-06T08:12:06;5.63;;;3.33;;
9413;SDS011;4746;35.664;139.738;2023-04-06T08:14:36;8.60;;;3.80;;
9413;SDS011;4746;35.664;139.738;2023-04-06T08:17:05;6.97;;;3.53;;
9413;SDS011;4746;35.664;139.738;2023-04-06T08:19:32;6.50;;;3.60;;
9413;SDS011;4746;35.664;139.738;2023-04-06T08:22:00;8.45;;;3.85;;
9413;SDS011;4746;35.664;139.738;2023-04-06T08:24:28;7.40;;;3.83;;
9413;SDS011;4746;35.664;139.738;2023-04-06T08:26:57;9.18;;;4.32;;
9413;SDS011;4746;35.664;139.738;2023-04-06T08:29:25;5.68;;;4.05;;
9413;SDS011;4746;35.664;139.738;2023-04-06T08:31:52;5.35;;;3.45;;
9413;SDS011;4746;35.664;139.738;2023-04-06T08:34:20;11.20;;;4.28;;
9413;SDS011;4746;35.664;139.738;2023-04-06T08:36:49;8.07;;;3.28;;
9413;SDS011;4746;35.664;139.738;2023-04-06T08:39:16;13.75;;;4.28;;
9413;SDS011;4746;35.664;139.738;2023-04-06T08:41:53;7.72;;;3.85;;
9413;SDS011;4746;35.664;139.738;2023-04-06T08:44:28;9.13;;;3.70;;
9413;SDS011;4746;35.664;139.738;2023-04-06T08:46:58;7.70;;;3.83;;
9413;SDS011;4746;35.664;139.738;2023-04-06T08:49:28;9.27;;;4.40;;
9413;SDS011;4746;35.664;139.738;2023-04-06T08:51:56;10.23;;;3.70;;
9413;SDS011;4746;35.664;139.738;2023-04-06T08:54:25;7.83;;;3.80;;
9413;SDS011;4746;35.664;139.738;2023-04-06T08:56:53;10.57;;;4.40;;
9413;SDS011;4746;35.664;139.738;2023-04-06T08:59:23;5.90;;;3.83;;
9413;SDS011;4746;35.664;139.738;2023-04-06T09:01:52;6.97;;;4.13;;
9413;SDS011;4746;35.664;139.738;2023-04-06T09:04:21;7.00;;;4.03;;
9413;SDS011;4746;35.664;139.738;2023-04-06T09:06:48;10.30;;;4.50;;
9413;SDS011;4746;35.664;139.738;2023-04-06T09:09:17;8.87;;;3.70;;
9413;SDS011;4746;35.664;139.738;2023-04-06T09:14:32;9.47;;;4.70;;
9413;SDS011;4746;35.664;139.738;2023-04-06T09:17:05;6.67;;;4.03;;
9413;SDS011;4746;35.664;139.738;2023-04-06T09:19:32;11.10;;;4.60;;
9413;SDS011;4746;35.664;139.738;2023-04-06T09:22:10;11.47;;;4.70;;
9413;SDS011;4746;35.664;139.738;2023-04-06T09:24:49;7.47;;;4.70;;
9413;SDS011;4746;35.664;139.738;2023-04-06T09:27:32;7.63;;;4.47;;
9413;SDS011;4746;35.664;139.738;2023-04-06T09:30:06;7.63;;;4.50;;
9413;SDS011;4746;35.664;139.738;2023-04-06T09:35:16;12.50;;;5.13;;
9413;SDS011;4746;35.664;139.738;2023-04-06T09:37:48;6.50;;;4.43;;
9413;SDS011;4746;35.664;139.738;2023-04-06T09:40:17;6.57;;;4.20;;
9413;SDS011;4746;35.664;139.738;2023-04-06T09:42:47;7.10;;;4.73;;
9413;SDS011;4746;35.664;139.738;2023-04-06T09:45:22;7.77;;;4.77;;
9413;SDS011;4746;35.664;139.738;2023-04-06T09:47:51;7.07;;;5.07;;
9413;SDS011;4746;35.664;139.738;2023-04-06T09:50:21;8.67;;;4.67;;
9413;SDS011;4746;35.664;139.738;2023-04-06T09:52:51;7.50;;;4.73;;
9413;SDS011;4746;35.664;139.738;2023-04-06T09:55:35;8.03;;;4.73;;
9413;SDS011;4746;35.664;139.738;2023-04-06T09:58:18;8.93;;;5.00;;
9413;SDS011;4746;35.664;139.738;2023-04-06T10:01:01;7.03;;;5.00;;
9413;SDS011;4746;35.664;139.738;2023-04-06T10:03:37;9.33;;;5.30;;
9413;SDS011;4746;35.664;139.738;2023-04-06T10:06:32;9.73;;;5.07;;
9413;SDS011;4746;35.664;139.738;2023-04-06T10:09:02;8.83;;;5.10;;
9413;SDS011;4746;35.664;139.738;2023-04-06T10:11:33;8.53;;;4.97;;
9413;SDS011;4746;35.664;139.738;2023-04-06T10:14:01;6.73;;;4.60;;
9413;SDS011;4746;35.664;139.738;2023-04-06T10:16:29;8.13;;;4.83;;
9413;SDS011;4746;35.664;139.738;2023-04-06T10:19:00;8.30;;;4.90;;
9413;SDS011;4746;35.664;139.738;2023-04-06T10:21:40;10.67;;;5.50;;
9413;SDS011;4746;35.664;139.738;2023-04-06T10:24:14;8.47;;;4.67;;
9413;SDS011;4746;35.664;139.738;2023-04-06T10:26:43;8.03;;;4.87;;
9413;SDS011;4746;35.664;139.738;2023-04-06T10:29:23;13.57;;;5.77;;
9413;SDS011;4746;35.664;139.738;2023-04-06T10:31:51;8.13;;;5.47;;
9413;SDS011;4746;35.664;139.738;2023-04-06T10:34:20;12.30;;;5.97;;
9413;SDS011;4746;35.664;139.738;2023-04-06T10:36:48;9.10;;;5.90;;
9413;SDS011;4746;35.664;139.738;2023-04-06T10:39:23;7.00;;;5.73;;
9413;SDS011;4746;35.664;139.738;2023-04-06T10:41:53;10.07;;;5.53;;
9413;SDS011;4746;35.664;139.738;2023-04-06T10:44:21;14.00;;;6.30;;
9413;SDS011;4746;35.664;139.738;2023-04-06T10:46:52;11.17;;;5.93;;
9413;SDS011;4746;35.664;139.738;2023-04-06T10:49:24;8.80;;;5.20;;
9413;SDS011;4746;35.664;139.738;2023-04-06T10:51:55;11.73;;;6.27;;
9413;SDS011;4746;35.664;139.738;2023-04-06T10:54:25;7.20;;;5.77;;
9413;SDS011;4746;35.664;139.738;2023-04-06T10:56:54;8.87;;;5.83;;
9413;SDS011;4746;35.664;139.738;2023-04-06T10:59:22;7.63;;;5.60;;
9413;SDS011;4746;35.664;139.738;2023-04-06T11:01:50;7.97;;;4.60;;
9413;SDS011;4746;35.664;139.738;2023-04-06T11:04:20;6.47;;;5.50;;
9413;SDS011;4746;35.664;139.738;2023-04-06T11:06:49;6.90;;;4.10;;
9413;SDS011;4746;35.664;139.738;2023-04-06T11:09:28;5.63;;;4.83;;
9413;SDS011;4746;35.664;139.738;2023-04-06T11:11:57;9.30;;;4.83;;
9413;SDS011;4746;35.664;139.738;2023-04-06T11:14:26;6.93;;;5.10;;
9413;SDS011;4746;35.664;139.738;2023-04-06T11:16:54;6.23;;;4.97;;
9413;SDS011;4746;35.664;139.738;2023-04-06T11:19:23;6.67;;;5.30;;
9413;SDS011;4746;35.664;139.738;2023-04-06T11:21:55;7.80;;;5.33;;
9413;SDS011;4746;35.664;139.738;2023-04-06T11:24:33;9.53;;;5.60;;
9413;SDS011;4746;35.664;139.738;2023-04-06T11:27:01;9.03;;;5.00;;
9413;SDS011;4746;35.664;139.738;2023-04-06T11:29:30;9.07;;;5.40;;
9413;SDS011;4746;35.664;139.738;2023-04-06T11:32:01;8.47;;;5.27;;
9413;SDS011;4746;35.664;139.738;2023-04-06T11:34:35;8.00;;;5.97;;
9413;SDS011;4746;35.664;139.738;2023-04-06T11:37:10;10.57;;;5.47;;
9413;SDS011;4746;35.664;139.738;2023-04-06T11:39:41;12.00;;;6.47;;
9413;SDS011;4746;35.664;139.738;2023-04-06T11:42:21;8.80;;;5.07;;
9413;SDS011;4746;35.664;139.738;2023-04-06T11:44:58;5.87;;;4.87;;
9413;SDS011;4746;35.664;139.738;2023-04-06T11:47:30;6.00;;;5.33;;
9413;SDS011;4746;35.664;139.738;2023-04-06T11:50:07;8.57;;;4.77;;
9413;SDS011;4746;35.664;139.738;2023-04-06T11:52:38;5.43;;;4.90;;
9413;SDS011;4746;35.664;139.738;2023-04-06T11:55:14;7.87;;;4.90;;
9413;SDS011;4746;35.664;139.738;2023-04-06T11:57:44;5.80;;;4.47;;
9413;SDS011;4746;35.664;139.738;2023-04-06T12:00:12;5.73;;;4.37;;
9413;SDS011;4746;35.664;139.738;2023-04-06T12:02:44;7.97;;;4.80;;
9413;SDS011;4746;35.664;139.738;2023-04-06T12:05:14;6.97;;;4.70;;
9413;SDS011;4746;35.664;139.738;2023-04-06T12:07:44;6.63;;;4.47;;
9413;SDS011;4746;35.664;139.738;2023-04-06T12:10:12;12.87;;;7.60;;
9413;SDS011;4746;35.664;139.738;2023-04-06T12:12:40;7.97;;;4.93;;
9413;SDS011;4746;35.664;139.738;2023-04-06T12:15:07;8.07;;;4.57;;
9413;SDS011;4746;35.664;139.738;2023-04-06T12:17:35;6.83;;;4.33;;
9413;SDS011;4746;35.664;139.738;2023-04-06T12:20:03;8.90;;;6.10;;
9413;SDS011;4746;35.664;139.738;2023-04-06T12:22:32;9.20;;;5.40;;
9413;SDS011;4746;35.664;139.738;2023-04-06T12:24:59;12.30;;;5.77;;
9413;SDS011;4746;35.664;139.738;2023-04-06T12:27:27;6.00;;;5.27;;
9413;SDS011;4746;35.664;139.738;2023-04-06T12:29:55;6.27;;;5.00;;
9413;SDS011;4746;35.664;139.738;2023-04-06T12:32:22;6.93;;;5.27;;
9413;SDS011;4746;35.664;139.738;2023-04-06T12:34:53;10.80;;;5.73;;
9413;SDS011;4746;35.664;139.738;2023-04-06T12:37:20;7.80;;;6.20;;
9413;SDS011;4746;35.664;139.738;2023-04-06T12:39:48;7.70;;;5.57;;
9413;SDS011;4746;35.664;139.738;2023-04-06T12:42:16;7.70;;;5.23;;
9413;SDS011;4746;35.664;139.738;2023-04-06T12:44:43;7.20;;;5.40;;
9413;SDS011;4746;35.664;139.738;2023-04-06T12:47:12;9.60;;;6.07;;
9413;SDS011;4746;35.664;139.738;2023-04-06T12:49:41;7.80;;;6.07;;
9413;SDS011;4746;35.664;139.738;2023-04-06T12:52:10;10.00;;;6.37;;
9413;SDS011;4746;35.664;139.738;2023-04-06T12:54:37;10.77;;;6.67;;
9413;SDS011;4746;35.664;139.738;2023-04-06T12:57:05;13.07;;;6.47;;
9413;SDS011;4746;35.664;139.738;2023-04-06T12:59:32;8.53;;;6.43;;
9413;SDS011;4746;35.664;139.738;2023-04-06T13:02:00;13.43;;;7.90;;
9413;SDS011;4746;35.664;139.738;2023-04-06T13:04:30;10.07;;;6.17;;
9413;SDS011;4746;35.664;139.738;2023-04-06T13:06:58;8.93;;;6.20;;
9413;SDS011;4746;35.664;139.738;2023-04-06T13:09:25;9.37;;;6.07;;
9413;SDS011;4746;35.664;139.738;2023-04-06T13:11:55;9.00;;;5.90;;
9413;SDS011;4746;35.664;139.738;2023-04-06T13:14:23;8.87;;;5.77;;
9413;SDS011;4746;35.664;139.738;2023-04-06T13:16:51;8.73;;;5.67;;
9413;SDS011;4746;35.664;139.738;2023-04-06T13:19:18;8.27;;;6.27;;
9413;SDS011;4746;35.664;139.738;2023-04-06T13:21:46;10.80;;;6.37;;
9413;SDS011;4746;35.664;139.738;2023-04-06T13:24:15;9.73;;;6.50;;
9413;SDS011;4746;35.664;139.738;2023-04-06T13:26:43;11.80;;;6.30;;
9413;SDS011;4746;35.664;139.738;2023-04-06T13:29:10;9.40;;;6.37;;
9413;SDS011;4746;35.664;139.738;2023-04-06T13:31:40;8.47;;;5.73;;
9413;SDS011;4746;35.664;139.738;2023-04-06T13:34:08;11.60;;;6.47;;
9413;SDS011;4746;35.664;139.738;2023-04-06T13:36:36;13.37;;;6.13;;
9413;SDS011;4746;35.664;139.738;2023-04-06T13:39:06;10.97;;;7.20;;
9413;SDS011;4746;35.664;139.738;2023-04-06T13:41:34;12.93;;;7.30;;
9413;SDS011;4746;35.664;139.738;2023-04-06T13:44:01;13.03;;;6.37;;
9413;SDS011;4746;35.664;139.738;2023-04-06T13:46:31;10.17;;;6.77;;
9413;SDS011;4746;35.664;139.738;2023-04-06T13:49:01;10.90;;;6.67;;
9413;SDS011;4746;35.664;139.738;2023-04-06T13:51:31;10.67;;;6.10;;
9413;SDS011;4746;35.664;139.738;2023-04-06T13:54:04;11.23;;;6.57;;
9413;SDS011;4746;35.664;139.738;2023-04-06T13:56:32;9.57;;;6.10;;
9413;SDS011;4746;35.664;139.738;2023-04-06T13:58:59;12.80;;;6.67;;
9413;SDS011;4746;35.664;139.738;2023-04-06T14:01:28;11.50;;;6.20;;
9413;SDS011;4746;35.664;139.738;2023-04-06T14:03:56;11.47;;;6.60;;
9413;SDS011;4746;35.664;139.738;2023-04-06T14:06:23;11.23;;;6.03;;
9413;SDS011;4746;35.664;139.738;2023-04-06T14:08:51;14.03;;;6.57;;
9413;SDS011;4746;35.664;139.738;2023-04-06T14:11:19;11.70;;;6.73;;
9413;SDS011;4746;35.664;139.738;2023-04-06T14:13:46;11.87;;;6.83;;
9413;SDS011;4746;35.664;139.738;2023-04-06T14:16:15;9.40;;;6.33;;
9413;SDS011;4746;35.664;139.738;2023-04-06T14:18:44;16.00;;;6.70;;
9413;SDS011;4746;35.664;139.738;2023-04-06T14:21:14;12.53;;;6.50;;
9413;SDS011;4746;35.664;139.738;2023-04-06T14:23:44;11.30;;;6.10;;
9413;SDS011;4746;35.664;139.738;2023-04-06T14:26:11;10.50;;;6.50;;
9413;SDS011;4746;35.664;139.738;2023-04-06T14:28:39;8.27;;;6.23;;
9413;SDS011;4746;35.664;139.738;2023-04-06T14:31:12;11.10;;;6.73;;
9413;SDS011;4746;35.664;139.738;2023-04-06T14:33:41;7.90;;;5.87;;
9413;SDS011;4746;35.664;139.738;2023-04-06T14:36:09;11.87;;;6.23;;
9413;SDS011;4746;35.664;139.738;2023-04-06T14:38:36;11.73;;;6.30;;
9413;SDS011;4746;35.664;139.738;2023-04-06T14:41:05;10.93;;;6.50;;
9413;SDS011;4746;35.664;139.738;2023-04-06T14:43:35;12.07;;;6.40;;
9413;SDS011;4746;35.664;139.738;2023-04-06T14:46:07;11.63;;;6.47;;
9413;SDS011;4746;35.664;139.738;2023-04-06T14:48:37;14.47;;;6.67;;
9413;SDS011;4746;35.664;139.738;2023-04-06T14:51:09;10.70;;;6.87;;
9413;SDS011;4746;35.664;139.738;2023-04-06T14:53:37;10.60;;;6.00;;
9413;SDS011;4746;35.664;139.738;2023-04-06T14:56:07;11.13;;;6.57;;
9413;SDS011;4746;35.664;139.738;2023-04-06T14:58:35;9.47;;;5.90;;
9413;SDS011;4746;35.664;139.738;2023-04-06T15:01:02;11.60;;;6.60;;